createdAt,value
2018-12-05T00:04:39.408Z,7.60
2018-12-05T00:09:34.514Z,9.17
2018-12-05T00:14:31.878Z,8.80
2018-12-05T00:19:27.538Z,7.97
2018-12-05T00:24:22.452Z,8.13
2018-12-05T00:29:17.663Z,9.03
2018-12-05T00:34:13.349Z,9.67
2018-12-05T00:39:11.813Z,8.67
2018-12-05T00:44:08.373Z,8.33
2018-12-05T00:49:04.258Z,9.50
2018-12-05T00:53:59.372Z,8.73
2018-12-05T00:58:55.827Z,8.80
2018-12-05T01:03:50.775Z,9.43
2018-12-05T01:08:47.913Z,10.97
2018-12-05T01:13:44.600Z,9.30
2018-12-05T01:18:40.419Z,10.23
2018-12-05T01:23:37.020Z,10.93
2018-12-05T01:33:40.280Z,11.70
2018-12-05T01:38:35.339Z,13.30
2018-12-05T01:43:35.536Z,10.13
2018-12-05T01:48:30.501Z,10.10
2018-12-05T01:53:25.453Z,13.43
2018-12-05T01:58:21.262Z,10.23
2018-12-05T02:03:16.446Z,10.33
2018-12-05T02:08:11.314Z,13.07
2018-12-05T02:13:06.325Z,12.10
2018-12-05T02:18:06.053Z,13.10
2018-12-05T02:23:00.890Z,15.17
2018-12-05T02:27:55.713Z,14.03
2018-12-05T02:32:52.544Z,17.50
2018-12-05T02:37:47.642Z,14.93
2018-12-05T02:42:42.643Z,15.13
2018-12-05T02:47:37.553Z,14.93
2018-12-05T02:52:32.547Z,14.50
2018-12-05T02:57:27.329Z,14.70
2018-12-05T03:02:23.197Z,16.93
2018-12-05T03:07:18.123Z,18.93
2018-12-05T03:12:12.982Z,13.87
2018-12-05T03:17:08.450Z,18.77
2018-12-05T03:22:03.275Z,16.53
2018-12-05T03:26:58.103Z,17.03
2018-12-05T03:31:52.983Z,14.70
2018-12-05T03:36:47.840Z,14.03
2018-12-05T03:41:42.635Z,16.57
2018-12-05T03:46:37.465Z,16.93
2018-12-05T03:51:32.445Z,16.10
2018-12-05T03:56:27.392Z,17.23
2018-12-05T04:01:22.385Z,16.00
2018-12-05T04:06:17.126Z,17.30
2018-12-05T04:11:11.986Z,16.10
2018-12-05T04:16:06.884Z,16.47
2018-12-05T04:21:01.721Z,14.93
2018-12-05T04:25:56.508Z,17.37
2018-12-05T04:30:51.291Z,16.60
2018-12-05T04:35:46.106Z,16.70
2018-12-05T04:40:41.087Z,15.90
2018-12-05T04:45:35.950Z,17.67
2018-12-05T04:50:31.920Z,17.50
2018-12-05T04:55:26.654Z,18.93
2018-12-05T05:00:21.592Z,21.27
2018-12-05T05:05:16.776Z,18.20
2018-12-05T05:10:13.691Z,17.37
2018-12-05T05:15:08.604Z,21.80
2018-12-05T05:20:03.678Z,18.27
2018-12-05T05:24:58.521Z,17.73
2018-12-05T05:29:53.484Z,17.77
2018-12-05T05:40:32.385Z,23.63
2018-12-05T05:50:35.565Z,16.53
2018-12-05T06:06:33.795Z,19.07
2018-12-05T06:12:39.375Z,20.23
2018-12-05T06:17:37.541Z,23.03
2018-12-05T06:22:35.794Z,19.87
2018-12-05T06:27:30.734Z,21.03
2018-12-05T06:32:25.834Z,20.20
2018-12-05T06:37:20.719Z,19.03
2018-12-05T06:42:15.622Z,19.97
2018-12-05T06:47:23.102Z,19.00
2018-12-05T06:52:20.549Z,20.70
2018-12-05T06:57:15.551Z,21.63
2018-12-05T07:02:10.581Z,21.63
2018-12-05T07:07:05.592Z,21.20
2018-12-05T07:12:00.445Z,19.77
2018-12-05T07:16:55.297Z,17.73
2018-12-05T07:21:50.212Z,19.73
2018-12-05T07:26:45.332Z,19.37
2018-12-05T07:31:41.927Z,16.97
2018-12-05T07:36:38.009Z,19.03
2018-12-05T07:41:35.106Z,16.50
2018-12-05T07:46:32.615Z,18.13
2018-12-05T07:51:27.985Z,21.97
2018-12-05T07:56:22.967Z,17.70
2018-12-05T08:01:18.124Z,17.03
2018-12-05T08:06:13.104Z,17.47
2018-12-05T08:11:08.643Z,15.37
2018-12-05T08:16:03.843Z,17.40
2018-12-05T08:20:58.669Z,14.50
2018-12-05T08:25:53.634Z,18.77
2018-12-05T08:30:49.279Z,15.33
2018-12-05T08:35:44.927Z,16.10
2018-12-05T08:40:44.316Z,17.27
2018-12-05T08:45:39.838Z,15.87
2018-12-05T08:50:35.543Z,16.33
2018-12-05T08:55:30.642Z,15.17
2018-12-05T09:00:26.030Z,15.03
2018-12-05T09:05:20.974Z,15.30
2018-12-05T09:10:16.015Z,14.63
2018-12-05T09:15:14.483Z,14.60
2018-12-05T09:20:10.943Z,13.10
2018-12-05T09:25:07.821Z,14.07
2018-12-05T09:30:02.855Z,12.83
2018-12-05T09:35:00.434Z,15.40
2018-12-05T09:39:55.414Z,14.37
2018-12-05T09:44:50.129Z,14.07
2018-12-05T09:49:45.094Z,12.43
2018-12-05T09:54:40.947Z,13.90
2018-12-05T09:59:39.345Z,15.43
2018-12-05T10:04:37.766Z,13.50
2018-12-05T10:09:32.795Z,14.47
2018-12-05T10:14:27.683Z,13.67
2018-12-05T10:19:22.505Z,13.57
2018-12-05T10:24:18.307Z,14.87
2018-12-05T10:29:14.166Z,14.80
2018-12-05T10:34:09.224Z,15.67
2018-12-05T10:39:05.664Z,15.30
2018-12-05T10:44:01.535Z,12.93
2018-12-05T10:48:58.337Z,14.07
2018-12-05T10:53:53.234Z,16.80
2018-12-05T10:58:48.053Z,15.30
2018-12-05T11:03:42.850Z,15.07
2018-12-05T11:08:42.874Z,15.20
2018-12-05T11:13:42.921Z,14.23
2018-12-05T11:18:44.898Z,12.37
2018-12-05T11:23:47.709Z,14.77
2018-12-05T11:28:45.222Z,15.30
2018-12-05T11:33:44.075Z,12.53
2018-12-05T11:38:43.865Z,11.50
2018-12-05T11:43:38.926Z,12.10
2018-12-05T11:48:33.694Z,11.37
2018-12-05T11:53:28.682Z,12.57
2018-12-05T11:58:23.720Z,11.53
2018-12-05T12:03:21.106Z,10.13
2018-12-05T12:08:19.220Z,8.90
2018-12-05T12:13:14.138Z,11.93
2018-12-05T12:18:09.154Z,8.57
2018-12-05T12:23:03.982Z,9.50
2018-12-05T12:27:59.615Z,11.50
2018-12-05T12:33:26.434Z,12.07
2018-12-05T12:38:25.635Z,10.33
2018-12-05T12:43:24.169Z,10.30
2018-12-05T12:48:22.032Z,10.00
2018-12-05T12:53:27.608Z,10.60
2018-12-05T12:58:22.564Z,10.23
2018-12-05T13:03:17.441Z,9.97
2018-12-05T13:08:12.293Z,11.12
2018-12-05T13:13:07.170Z,9.97
2018-12-05T13:18:01.933Z,10.27
2018-12-05T13:22:57.191Z,9.90
2018-12-05T13:27:52.799Z,8.43
2018-12-05T13:32:48.709Z,11.63
2018-12-05T13:37:44.882Z,12.33
2018-12-05T13:42:39.737Z,11.33
2018-12-05T13:47:34.578Z,14.27
2018-12-05T13:52:29.505Z,11.87
2018-12-05T13:57:24.390Z,11.23
2018-12-05T14:02:19.129Z,12.37
2018-12-05T14:07:14.013Z,21.30
2018-12-05T14:12:12.882Z,12.97
2018-12-05T14:17:07.952Z,11.97
2018-12-05T14:22:04.315Z,12.97
2018-12-05T14:27:00.568Z,11.83
2018-12-05T14:31:59.286Z,11.33
2018-12-05T14:36:58.419Z,10.73
2018-12-05T14:42:03.660Z,13.17
2018-12-05T14:46:58.619Z,24.00
2018-12-05T14:51:53.412Z,13.37
2018-12-05T14:56:48.173Z,10.77
2018-12-05T15:01:45.906Z,13.00
2018-12-05T15:06:52.921Z,11.07
2018-12-05T15:12:03.775Z,12.63
2018-12-05T15:16:58.854Z,14.27
2018-12-05T15:21:53.877Z,19.03
2018-12-05T15:26:51.521Z,14.30
2018-12-05T15:31:49.707Z,15.00
2018-12-05T15:36:50.621Z,14.90
2018-12-05T15:41:59.899Z,15.30
2018-12-05T15:46:58.170Z,11.30
2018-12-05T15:51:59.121Z,12.03
2018-12-05T15:56:54.037Z,13.23
2018-12-05T16:01:55.425Z,13.60
2018-12-05T16:06:50.382Z,11.53
2018-12-05T16:11:47.762Z,12.87
2018-12-05T16:16:48.739Z,13.17
2018-12-05T16:21:54.423Z,11.17
2018-12-05T16:32:33.536Z,12.97
2018-12-05T16:37:31.294Z,11.80
2018-12-05T16:42:42.074Z,11.60
2018-12-05T16:47:38.946Z,13.40
2018-12-05T16:52:33.704Z,12.93
2018-12-05T16:57:29.856Z,13.00
2018-12-05T17:02:24.960Z,12.97
2018-12-05T17:07:21.061Z,14.00
2018-12-05T17:12:16.367Z,14.33
2018-12-05T17:17:12.441Z,14.40
2018-12-05T17:22:09.578Z,14.27
2018-12-05T17:27:04.608Z,12.97
2018-12-05T17:31:59.667Z,12.47
2018-12-05T17:36:54.506Z,15.23
2018-12-05T17:41:49.451Z,13.43
2018-12-05T17:47:04.101Z,17.73
2018-12-05T17:57:29.312Z,13.30
2018-12-05T18:02:24.342Z,14.50
2018-12-05T18:07:22.662Z,15.17
2018-12-05T18:12:17.861Z,16.23
2018-12-05T18:17:13.201Z,12.97
2018-12-05T18:22:08.488Z,15.17
2018-12-05T18:27:03.891Z,14.37
2018-12-05T18:31:58.744Z,17.43
2018-12-05T18:36:53.657Z,15.23
2018-12-05T18:41:48.625Z,15.53
2018-12-05T18:46:43.478Z,16.67
2018-12-05T18:51:38.345Z,20.13
2018-12-05T18:56:33.469Z,18.20
2018-12-05T19:02:09.191Z,15.00
2018-12-05T19:07:04.546Z,16.23
2018-12-05T19:11:59.490Z,18.03
2018-12-05T19:16:56.052Z,16.50
2018-12-05T19:21:50.982Z,18.37
2018-12-05T19:26:45.952Z,17.13
2018-12-05T19:31:40.673Z,17.33
2018-12-05T19:36:35.822Z,16.20
2018-12-05T19:41:31.822Z,15.67
2018-12-05T19:46:28.998Z,15.23
2018-12-05T19:51:24.108Z,19.50
2018-12-05T19:56:19.021Z,14.00
2018-12-05T20:01:14.202Z,16.27
2018-12-05T20:06:09.946Z,17.53
2018-12-05T20:11:05.377Z,18.70
2018-12-05T20:16:00.886Z,19.10
2018-12-05T20:20:55.984Z,17.57
2018-12-05T20:25:51.074Z,21.90
2018-12-05T20:30:46.089Z,23.53
2018-12-05T20:35:41.033Z,17.47
2018-12-05T20:40:37.777Z,20.07
2018-12-05T20:45:32.768Z,18.50
2018-12-05T20:50:29.883Z,17.70
2018-12-05T20:55:25.177Z,18.73
2018-12-05T21:00:20.292Z,19.90
2018-12-05T21:05:15.451Z,18.27
2018-12-05T21:10:14.471Z,19.77
2018-12-05T21:15:09.861Z,19.07
2018-12-05T21:20:05.505Z,19.23
2018-12-05T21:25:00.311Z,21.60
2018-12-05T21:35:29.965Z,26.93
2018-12-05T21:40:24.886Z,25.70
2018-12-05T21:45:19.797Z,27.80
2018-12-05T21:50:14.952Z,27.70
2018-12-05T21:55:09.623Z,42.40
2018-12-05T23:37:56.577Z,35.37
2018-12-05T23:42:51.617Z,35.50
2018-12-05T23:47:46.557Z,30.00
2018-12-05T23:52:41.508Z,28.67
2018-12-05T23:57:37.874Z,33.93
